Other Surface Observations
Issued by NWS Missoula, MT

Home | Current Version | Previous Version | Text Only | Print | Product List | Glossary On
Versions: 1 2 3 4 5 6 7 8 9 10 11 12 13 14 15 16 17 18 19 20 21 22 23 24 25 26 27 28 29 30 31 32 33 34 35 36 37 38 39 40 41 42 43 44 45 46 47 48 49 50
000
SXUS55 KMSO 252243
OSOMSO
MONTANA AWOS SUMMARY
NATIONAL WEATHER SERVICE MISSOULA MT
343 PM MST SAT APR 25 2015

Montana AWOS Reports

LAUREL      |K6S8 252235Z AUTO 04006KT 40SM 09/01 A2982 RMK AO1 T00940011
MALTA       |KM75 252235Z AUTO 00000KT 15SM 08/04 A2977 RMK AO1 T00780044
TWIN BRIDGES|K7S1 252235Z AUTO 18004KT 40SM 10/M06 A2980 RMK AO1 T01001055
ROUNDUP     |KRPX 252235Z AUTO 00000KT 40SM 11/M01 A2975 RMK AO1 T01061005




USA.gov is the U.S. government's official web portal to all federal, state and local government web resources and services.